createdAt,value
2018-09-16T00:01:05.390Z,1019.63
2018-09-16T00:02:14.032Z,1019.61
2018-09-16T00:03:22.667Z,1019.63
2018-09-16T00:04:31.315Z,1019.67
2018-09-16T00:05:40.225Z,1019.64
2018-09-16T00:06:48.859Z,1019.62
2018-09-16T00:07:57.498Z,1019.6
2018-09-16T00:09:06.148Z,1019.62
2018-09-16T00:10:15.056Z,1019.57
2018-09-16T00:11:23.699Z,1019.59
2018-09-16T00:12:32.349Z,1019.58
2018-09-16T00:13:40.986Z,1019.55
2018-09-16T00:14:49.628Z,1019.55
2018-09-16T00:15:58.534Z,1019.52
2018-09-16T00:17:07.181Z,1019.51
2018-09-16T00:18:15.821Z,1019.51
2018-09-16T00:19:24.462Z,1019.55
2018-09-16T00:20:33.105Z,1019.52
2018-09-16T00:21:41.756Z,1019.52
2018-09-16T00:22:50.394Z,1019.52
2018-09-16T00:23:59.041Z,1019.55
2018-09-16T00:25:09.680Z,1019.57
2018-09-16T00:26:18.327Z,1019.56
2018-09-16T00:27:26.969Z,1019.52
2018-09-16T00:28:35.612Z,1019.56
2018-09-16T00:29:44.252Z,1019.56
2018-09-16T00:30:52.892Z,1019.58
2018-09-16T00:32:01.542Z,1019.56
2018-09-16T00:33:10.444Z,1019.53
2018-09-16T00:34:19.350Z,1019.56
2018-09-16T00:35:27.989Z,1019.47
2018-09-16T00:36:36.638Z,1019.52
2018-09-16T00:37:45.801Z,1019.51
2018-09-16T00:38:54.443Z,1019.46
2018-09-16T00:40:03.347Z,1019.48
2018-09-16T00:41:11.991Z,1019.49
2018-09-16T00:42:20.631Z,1019.46
2018-09-16T00:43:29.277Z,1019.43
2018-09-16T00:44:37.911Z,1019.4
2018-09-16T00:45:46.816Z,1019.42
2018-09-16T00:46:55.458Z,1019.43
2018-09-16T00:48:04.102Z,1019.41
2018-09-16T00:49:12.746Z,1019.41
2018-09-16T00:50:21.382Z,1019.38
2018-09-16T00:51:30.025Z,1019.4
2018-09-16T00:52:38.668Z,1019.38
2018-09-16T00:53:47.312Z,1019.38
2018-09-16T00:54:55.947Z,1019.35
2018-09-16T00:56:04.866Z,1019.31
2018-09-16T00:57:13.503Z,1019.29
2018-09-16T00:58:22.156Z,1019.31
2018-09-16T00:59:31.048Z,1019.3
2018-09-16T01:00:39.693Z,1019.24
2018-09-16T01:01:48.333Z,1019.26
2018-09-16T01:02:56.984Z,1019.23
2018-09-16T01:04:05.624Z,1019.23
2018-09-16T01:05:14.526Z,1019.22
2018-09-16T01:06:23.164Z,1019.2
2018-09-16T01:07:32.069Z,1019.2
2018-09-16T01:08:40.718Z,1019.18
2018-09-16T01:09:49.357Z,1019.15
2018-09-16T01:10:58.004Z,1019.13
2018-09-16T01:12:06.637Z,1019.13
2018-09-16T01:13:15.551Z,1019.08
2018-09-16T01:14:24.449Z,1019.1
2018-09-16T01:15:33.095Z,1019.07
2018-09-16T01:16:41.729Z,1019.05
2018-09-16T01:17:50.639Z,1019.01
2018-09-16T01:18:59.280Z,1019.01
2018-09-16T01:20:07.927Z,1019
2018-09-16T01:21:16.559Z,1018.97
2018-09-16T01:22:25.204Z,1018.97
2018-09-16T01:23:33.851Z,1018.96
2018-09-16T01:24:42.495Z,1018.93
2018-09-16T01:25:51.138Z,1018.93
2018-09-16T01:26:59.777Z,1018.95
2018-09-16T01:28:08.427Z,1018.9
2018-09-16T01:29:17.073Z,1018.91
2018-09-16T01:30:25.726Z,1018.92
2018-09-16T01:31:34.357Z,1018.88
2018-09-16T01:32:43.001Z,1018.88
2018-09-16T01:33:51.639Z,1018.9
2018-09-16T01:35:00.288Z,1018.87
2018-09-16T01:36:08.922Z,1018.84
2018-09-16T01:37:17.571Z,1018.87
2018-09-16T01:38:26.209Z,1018.87
2018-09-16T01:39:34.861Z,1018.83
2018-09-16T01:40:43.502Z,1018.84
2018-09-16T01:41:52.139Z,1018.82
2018-09-16T01:43:00.778Z,1018.83
2018-09-16T01:44:09.419Z,1018.82
2018-09-16T01:45:18.080Z,1018.81
2018-09-16T01:46:27.240Z,1018.78
2018-09-16T01:47:35.890Z,1018.76
2018-09-16T01:48:44.522Z,1018.74
2018-09-16T01:49:53.174Z,1018.75
2018-09-16T01:51:01.811Z,1018.75
2018-09-16T01:52:10.455Z,1018.74
2018-09-16T01:53:19.098Z,1018.72
2018-09-16T01:54:27.994Z,1018.73
2018-09-16T01:55:37.168Z,1018.7
2018-09-16T01:56:46.077Z,1018.7
2018-09-16T01:57:54.725Z,1018.66
2018-09-16T01:59:03.363Z,1018.66
2018-09-16T02:00:12.003Z,1018.67
2018-09-16T02:01:20.644Z,1018.71
2018-09-16T02:02:29.285Z,1018.72
2018-09-16T02:03:38.197Z,1018.7
2018-09-16T02:04:46.834Z,1018.66
2018-09-16T02:05:55.480Z,1018.65
2018-09-16T02:07:04.380Z,1018.63
2018-09-16T02:08:13.311Z,1018.67
2018-09-16T02:09:21.953Z,1018.63
2018-09-16T02:10:30.861Z,1018.61
2018-09-16T02:11:39.496Z,1018.6
2018-09-16T02:12:48.148Z,1018.6
2018-09-16T02:13:56.789Z,1018.61
2018-09-16T02:15:05.433Z,1018.62
2018-09-16T02:16:14.066Z,1018.6
2018-09-16T02:17:22.710Z,1018.65
2018-09-16T02:18:31.357Z,1018.64
2018-09-16T02:19:40.276Z,1018.6
2018-09-16T02:20:48.919Z,1018.55
2018-09-16T02:21:57.551Z,1018.55
2018-09-16T02:23:06.197Z,1018.53
2018-09-16T02:24:14.840Z,1018.55
2018-09-16T02:25:23.490Z,1018.52
2018-09-16T02:26:32.122Z,1018.56
2018-09-16T02:27:41.084Z,1018.54
2018-09-16T02:28:49.982Z,1018.49
2018-09-16T02:29:58.635Z,1018.53
2018-09-16T02:31:07.807Z,1018.54
2018-09-16T02:32:16.454Z,1018.51
2018-09-16T02:33:25.095Z,1018.54
2018-09-16T02:34:33.745Z,1018.53
2018-09-16T02:35:42.390Z,1018.47
2018-09-16T02:36:51.031Z,1018.49
2018-09-16T02:37:59.672Z,1018.48
2018-09-16T02:39:08.577Z,1018.47
2018-09-16T02:40:17.231Z,1018.48
2018-09-16T02:41:26.135Z,1018.44
2018-09-16T02:42:35.055Z,1018.42
2018-09-16T02:43:43.686Z,1018.44
2018-09-16T02:44:52.337Z,1018.38
2018-09-16T02:46:00.974Z,1018.34
2018-09-16T02:47:09.890Z,1018.37
2018-09-16T02:48:18.524Z,1018.33
2018-09-16T02:49:27.436Z,1018.32
2018-09-16T02:50:36.076Z,1018.29
2018-09-16T02:51:45.014Z,1018.28
2018-09-16T02:52:53.639Z,1018.29
2018-09-16T02:54:02.283Z,1018.25
2018-09-16T02:55:11.190Z,1018.26
2018-09-16T02:56:19.834Z,1018.22
2018-09-16T02:57:28.478Z,1018.23
2018-09-16T02:58:37.116Z,1018.21
2018-09-16T02:59:45.767Z,1018.21
2018-09-16T03:00:54.407Z,1018.2
2018-09-16T03:02:03.054Z,1018.2
2018-09-16T03:03:11.961Z,1018.21
2018-09-16T03:04:20.603Z,1018.24
2018-09-16T03:05:29.244Z,1018.24
2018-09-16T03:06:37.902Z,1018.23
2018-09-16T03:07:46.800Z,1018.26
2018-09-16T03:08:55.444Z,1018.29
2018-09-16T03:10:04.082Z,1018.26
2018-09-16T03:11:13.265Z,1018.28
2018-09-16T03:12:21.904Z,1018.26
2018-09-16T03:13:30.553Z,1018.29
2018-09-16T03:14:39.481Z,1018.27
2018-09-16T03:15:48.116Z,1018.27
2018-09-16T03:16:57.027Z,1018.26
2018-09-16T03:18:05.927Z,1018.27
2018-09-16T03:19:14.570Z,1018.24
2018-09-16T03:20:23.471Z,1018.26
2018-09-16T03:21:32.120Z,1018.28
2018-09-16T03:22:41.308Z,1018.26
2018-09-16T03:23:50.217Z,1018.25
2018-09-16T03:24:59.387Z,1018.26
2018-09-16T03:26:08.804Z,1018.27
2018-09-16T03:27:17.446Z,1018.25
2018-09-16T03:28:26.094Z,1018.23
2018-09-16T03:29:34.733Z,1018.21
2018-09-16T03:30:43.379Z,1018.18
2018-09-16T03:31:52.288Z,1018.23
2018-09-16T03:33:00.939Z,1018.2
2018-09-16T03:34:09.583Z,1018.2
2018-09-16T03:35:18.225Z,1018.18
2018-09-16T03:36:26.865Z,1018.15
2018-09-16T03:37:35.787Z,1018.16
2018-09-16T03:38:44.430Z,1018.13
2018-09-16T03:39:53.072Z,1018.1
2018-09-16T03:41:02.269Z,1018.1
2018-09-16T03:42:11.168Z,1018.06
2018-09-16T03:43:20.079Z,1018.08
2018-09-16T03:44:29.246Z,1018.07
2018-09-16T03:45:37.888Z,1018.06
2018-09-16T03:46:46.624Z,1018.03
2018-09-16T03:47:55.516Z,1017.99
2018-09-16T03:49:04.172Z,1017.99
2018-09-16T03:50:12.798Z,1018.02
2018-09-16T03:51:21.437Z,1018.02
2018-09-16T03:52:30.077Z,1018
2018-09-16T03:53:38.730Z,1017.98
2018-09-16T03:54:47.377Z,1017.93
2018-09-16T03:55:56.015Z,1017.95
2018-09-16T03:57:04.649Z,1017.93
2018-09-16T03:58:13.830Z,1017.93
2018-09-16T03:59:22.469Z,1017.94
2018-09-16T04:00:31.125Z,1017.96
2018-09-16T04:01:39.759Z,1017.95
2018-09-16T04:02:48.410Z,1017.95
2018-09-16T04:03:57.048Z,1017.98
2018-09-16T04:05:05.967Z,1017.98
2018-09-16T04:06:14.599Z,1017.99
2018-09-16T04:07:23.242Z,1017.98
2018-09-16T04:08:31.891Z,1017.96
2018-09-16T04:09:40.539Z,1017.99
2018-09-16T04:10:49.463Z,1017.97
2018-09-16T04:11:58.094Z,1017.96
2018-09-16T04:13:06.738Z,1018.02
2018-09-16T04:14:15.952Z,1017.95
2018-09-16T04:15:24.550Z,1018.01
2018-09-16T04:16:33.707Z,1018.02
2018-09-16T04:17:42.347Z,1017.99
2018-09-16T04:18:50.988Z,1018.01
2018-09-16T04:19:59.907Z,1018.02
2018-09-16T04:21:08.839Z,1017.98
2018-09-16T04:22:17.444Z,1018.03
2018-09-16T04:23:26.083Z,1018.03
2018-09-16T04:24:34.732Z,1018.02
2018-09-16T04:25:43.372Z,1018.04
2018-09-16T04:26:52.008Z,1018.08
2018-09-16T04:28:00.646Z,1018.07
2018-09-16T04:29:09.293Z,1018.06
2018-09-16T04:30:18.479Z,1018.08
2018-09-16T04:31:27.115Z,1018.07
2018-09-16T04:32:35.764Z,1018.11
2018-09-16T04:33:44.676Z,1018.08
2018-09-16T04:34:53.323Z,1018.07
2018-09-16T04:36:02.220Z,1018.11
2018-09-16T04:37:10.864Z,1018.13
2018-09-16T04:38:19.759Z,1018.14
2018-09-16T04:39:28.407Z,1018.15
2018-09-16T04:40:37.052Z,1018.2
2018-09-16T04:41:45.696Z,1018.18
2018-09-16T04:42:54.611Z,1018.17
2018-09-16T04:44:03.233Z,1018.17
2018-09-16T04:45:11.884Z,1018.18
2018-09-16T04:46:20.794Z,1018.19
2018-09-16T04:47:29.437Z,1018.18
2018-09-16T04:48:38.067Z,1018.15
2018-09-16T04:49:46.732Z,1018.17
2018-09-16T04:50:55.719Z,1018.17
2018-09-16T04:52:04.639Z,1018.17
2018-09-16T04:53:13.274Z,1018.2
2018-09-16T04:54:22.181Z,1018.19
2018-09-16T04:55:30.820Z,1018.18
2018-09-16T04:56:39.731Z,1018.2
2018-09-16T04:57:48.367Z,1018.21
2018-09-16T04:58:57.009Z,1018.21
2018-09-16T05:00:05.649Z,1018.19
2018-09-16T05:01:14.302Z,1018.16
2018-09-16T05:02:22.935Z,1018.15
2018-09-16T05:03:31.577Z,1018.18
2018-09-16T05:04:40.218Z,1018.18
2018-09-16T05:05:49.177Z,1018.19
2018-09-16T05:06:57.824Z,1018.22
2018-09-16T05:08:06.465Z,1018.18
2018-09-16T05:09:15.370Z,1018.2
2018-09-16T05:10:24.013Z,1018.2
2018-09-16T05:11:32.651Z,1018.19
2018-09-16T05:12:41.294Z,1018.22
2018-09-16T05:13:49.934Z,1018.18
2018-09-16T05:14:58.573Z,1018.22
2018-09-16T05:16:07.220Z,1018.21
2018-09-16T05:17:15.858Z,1018.22
2018-09-16T05:18:24.500Z,1018.24
2018-09-16T05:19:33.136Z,1018.28
2018-09-16T05:20:41.779Z,1018.23
2018-09-16T05:21:50.424Z,1018.24
2018-09-16T05:22:59.328Z,1018.26
2018-09-16T05:24:07.971Z,1018.27
2018-09-16T05:25:16.607Z,1018.23
2018-09-16T05:26:25.248Z,1018.25
2018-09-16T05:27:33.891Z,1018.27
2018-09-16T05:28:42.534Z,1018.25
2018-09-16T05:29:51.171Z,1018.23
2018-09-16T05:30:59.814Z,1018.24
2018-09-16T05:32:08.455Z,1018.22
2018-09-16T05:33:17.103Z,1018.26
2018-09-16T05:34:26.116Z,1018.28
2018-09-16T05:35:34.827Z,1018.27
2018-09-16T05:36:44.039Z,1018.28
2018-09-16T05:37:52.700Z,1018.3
2018-09-16T05:39:01.347Z,1018.32
2018-09-16T05:40:10.466Z,1018.33
2018-09-16T05:41:19.347Z,1018.35
2018-09-16T05:42:27.989Z,1018.33
2018-09-16T05:43:36.841Z,1018.38
2018-09-16T05:44:45.486Z,1018.42
2018-09-16T05:45:54.389Z,1018.4
2018-09-16T05:47:03.026Z,1018.43
2018-09-16T05:48:11.929Z,1018.43
2018-09-16T05:49:20.569Z,1018.39
2018-09-16T05:50:29.210Z,1018.42
2018-09-16T05:51:37.856Z,1018.43
2018-09-16T05:52:46.551Z,1018.45
2018-09-16T05:53:55.143Z,1018.41
2018-09-16T05:55:03.780Z,1018.38
2018-09-16T05:56:12.424Z,1018.43
2018-09-16T05:57:21.329Z,1018.41
2018-09-16T05:58:29.970Z,1018.43
2018-09-16T05:59:38.608Z,1018.4
2018-09-16T06:00:47.247Z,1018.41
2018-09-16T06:01:55.893Z,1018.37
2018-09-16T06:03:04.535Z,1018.38
2018-09-16T06:04:13.440Z,1018.34
2018-09-16T06:05:22.077Z,1018.37
2018-09-16T06:06:30.724Z,1018.34
2018-09-16T06:07:39.369Z,1018.34
2018-09-16T06:08:48.289Z,1018.34
2018-09-16T06:09:56.902Z,1018.32
2018-09-16T06:11:05.817Z,1018.32
2018-09-16T06:12:14.460Z,1018.31
2018-09-16T06:13:23.366Z,1018.34
2018-09-16T06:14:32.000Z,1018.34
2018-09-16T06:15:40.644Z,1018.37
2018-09-16T06:16:49.285Z,1018.4
2018-09-16T06:17:58.193Z,1018.36
2018-09-16T06:19:06.836Z,1018.34
2018-09-16T06:20:15.477Z,1018.36
2018-09-16T06:21:24.118Z,1018.37
2018-09-16T06:22:32.787Z,1018.35
2018-09-16T06:23:41.409Z,1018.35
2018-09-16T06:24:50.048Z,1018.37
2018-09-16T06:25:58.689Z,1018.34
2018-09-16T06:27:07.334Z,1018.34
2018-09-16T06:28:15.979Z,1018.31
2018-09-16T06:29:24.879Z,1018.31
2018-09-16T06:30:33.522Z,1018.3
2018-09-16T06:31:42.162Z,1018.32
2018-09-16T06:32:51.080Z,1018.27
2018-09-16T06:33:59.721Z,1018.32
2018-09-16T06:35:08.362Z,1018.3
2018-09-16T06:36:17.001Z,1018.24
2018-09-16T06:37:25.640Z,1018.31
2018-09-16T06:38:34.554Z,1018.29
2018-09-16T06:39:43.466Z,1018.27
2018-09-16T06:40:52.106Z,1018.25
2018-09-16T06:42:00.743Z,1018.29
2018-09-16T06:43:09.389Z,1018.23
2018-09-16T06:44:18.032Z,1018.23
2018-09-16T06:45:26.673Z,1018.2
2018-09-16T06:46:35.309Z,1018.21
2018-09-16T06:47:43.960Z,1018.22
2018-09-16T06:48:52.597Z,1018.21
2018-09-16T06:50:01.243Z,1018.23
2018-09-16T06:51:09.875Z,1018.27
2018-09-16T06:52:18.517Z,1018.25
2018-09-16T06:53:27.164Z,1018.26
2018-09-16T06:54:35.807Z,1018.28
2018-09-16T06:55:44.453Z,1018.25
2018-09-16T06:56:53.085Z,1018.25
2018-09-16T06:58:01.732Z,1018.24
2018-09-16T06:59:10.636Z,1018.23
2018-09-16T07:00:19.283Z,1018.21
2018-09-16T07:01:27.917Z,1018.23
2018-09-16T07:02:36.566Z,1018.17
2018-09-16T07:03:45.203Z,1018.18
2018-09-16T07:04:53.855Z,1018.15
2018-09-16T07:06:02.488Z,1018.18
2018-09-16T07:07:11.133Z,1018.17
2018-09-16T07:08:20.040Z,1018.22
2018-09-16T07:09:28.685Z,1018.19
2018-09-16T07:10:37.327Z,1018.22
2018-09-16T07:11:45.962Z,1018.17
2018-09-16T07:12:54.602Z,1018.17
2018-09-16T07:14:03.244Z,1018.17
2018-09-16T07:15:12.162Z,1018.17
2018-09-16T07:16:20.800Z,1018.21
2018-09-16T07:17:29.446Z,1018.21
2018-09-16T07:18:38.341Z,1018.21
2018-09-16T07:19:46.989Z,1018.21
2018-09-16T07:20:55.629Z,1018.16
2018-09-16T07:22:04.544Z,1018.14
2018-09-16T07:23:13.189Z,1018.15
2018-09-16T07:24:22.370Z,1018.14
2018-09-16T07:25:31.014Z,1018.16
2018-09-16T07:26:39.972Z,1018.15
2018-09-16T07:27:48.571Z,1018.13
2018-09-16T07:28:57.209Z,1018.14
2018-09-16T07:30:05.854Z,1018.15
2018-09-16T07:31:14.500Z,1018.13
2018-09-16T07:32:23.146Z,1018.15
2018-09-16T07:33:31.792Z,1018.14
2018-09-16T07:34:40.436Z,1018.16
2018-09-16T07:35:49.076Z,1018.14
2018-09-16T07:36:57.728Z,1018.12
2018-09-16T07:38:06.365Z,1018.11
2018-09-16T07:39:15.274Z,1018.12
2018-09-16T07:40:23.914Z,1018.09
2018-09-16T07:41:32.566Z,1018.1
2018-09-16T07:42:41.201Z,1018.1
2018-09-16T07:43:49.850Z,1018.1
2018-09-16T07:44:58.491Z,1018.16
2018-09-16T07:46:07.131Z,1018.12
2018-09-16T07:47:15.794Z,1018.13
2018-09-16T07:48:24.747Z,1018.16
2018-09-16T07:49:33.394Z,1018.17
2018-09-16T07:50:42.039Z,1018.19
2018-09-16T07:51:50.676Z,1018.15
2018-09-16T07:52:59.482Z,1018.17
2018-09-16T07:54:07.969Z,1018.13
2018-09-16T07:55:16.617Z,1018.15
2018-09-16T07:56:25.524Z,1018.15
2018-09-16T07:57:34.429Z,1018.19
2018-09-16T07:58:43.609Z,1018.2
2018-09-16T07:59:52.259Z,1018.22
2018-09-16T08:01:00.900Z,1018.19
2018-09-16T08:02:09.546Z,1018.21
2018-09-16T08:03:18.187Z,1018.23
2018-09-16T08:04:26.837Z,1018.21
2018-09-16T08:05:35.517Z,1018.2
2018-09-16T08:06:44.125Z,1018.28
2018-09-16T08:07:52.770Z,1018.29
2018-09-16T08:09:01.412Z,1018.29
2018-09-16T08:10:10.062Z,1018.31
2018-09-16T08:11:18.705Z,1018.25
2018-09-16T08:12:27.350Z,1018.25
2018-09-16T08:13:36.028Z,1018.28
2018-09-16T08:14:44.638Z,1018.23
2018-09-16T08:15:53.284Z,1018.2
2018-09-16T08:17:01.934Z,1018.21
2018-09-16T08:18:10.568Z,1018.2
2018-09-16T08:19:19.225Z,1018.21
2018-09-16T08:20:27.870Z,1018.21
2018-09-16T08:21:36.520Z,1018.27
2018-09-16T08:22:45.425Z,1018.27
2018-09-16T08:23:54.073Z,1018.29
2018-09-16T08:25:02.991Z,1018.3
2018-09-16T08:26:11.641Z,1018.28
2018-09-16T08:27:20.290Z,1018.34
2018-09-16T08:28:28.966Z,1018.34
2018-09-16T08:29:37.583Z,1018.32
2018-09-16T08:30:46.488Z,1018.33
2018-09-16T08:31:55.138Z,1018.29
2018-09-16T08:33:03.779Z,1018.27
2018-09-16T08:34:12.425Z,1018.29
2018-09-16T08:35:21.073Z,1018.27
2018-09-16T08:36:29.722Z,1018.29
2018-09-16T08:37:38.625Z,1018.27
2018-09-16T08:38:47.547Z,1018.22
2018-09-16T08:39:56.188Z,1018.22
2018-09-16T08:41:04.840Z,1018.24
2018-09-16T08:42:13.749Z,1018.21
2018-09-16T08:43:22.393Z,1018.22
2018-09-16T08:44:31.304Z,1018.2
2018-09-16T08:45:40.015Z,1018.17
2018-09-16T08:46:48.602Z,1018.16
2018-09-16T08:47:57.245Z,1018.15
2018-09-16T08:49:05.894Z,1018.16
2018-09-16T08:50:14.531Z,1018.13
2018-09-16T08:51:23.188Z,1018.17
2018-09-16T08:52:31.831Z,1018.15
2018-09-16T08:53:40.481Z,1018.15
2018-09-16T08:54:49.118Z,1018.17
2018-09-16T08:55:57.777Z,1018.12
2018-09-16T08:57:06.420Z,1018.12
2018-09-16T08:58:15.084Z,1018.11
2018-09-16T08:59:23.714Z,1018.08
2018-09-16T09:00:32.352Z,1018.06
2018-09-16T09:01:41.264Z,1018.08
2018-09-16T09:02:49.915Z,1018.06
2018-09-16T09:03:58.563Z,1018.03
2018-09-16T09:05:07.199Z,1018.02
2018-09-16T09:06:15.849Z,1017.98
2018-09-16T09:07:24.492Z,1017.98
2018-09-16T09:08:33.415Z,1017.99
2018-09-16T09:09:42.052Z,1017.98
2018-09-16T09:10:50.974Z,1017.96
2018-09-16T09:11:59.615Z,1018.02
2018-09-16T09:13:08.269Z,1017.97
2018-09-16T09:14:16.953Z,1017.99
2018-09-16T09:15:25.558Z,1018
2018-09-16T09:16:34.201Z,1018.02
2018-09-16T09:17:42.859Z,1017.99
2018-09-16T09:18:51.501Z,1018.03
2018-09-16T09:20:00.144Z,1018.05
2018-09-16T09:21:08.789Z,1017.99
2018-09-16T09:22:17.432Z,1017.98
2018-09-16T09:23:26.190Z,1017.97
2018-09-16T09:24:34.729Z,1017.94
2018-09-16T09:25:43.378Z,1017.99
2018-09-16T09:26:52.015Z,1017.95
2018-09-16T09:28:00.670Z,1017.96
2018-09-16T09:29:09.573Z,1017.96
2018-09-16T09:30:18.479Z,1017.93
2018-09-16T09:31:27.115Z,1017.89
2018-09-16T09:32:35.774Z,1017.92
2018-09-16T09:33:44.421Z,1017.88
2018-09-16T09:34:53.067Z,1017.87
2018-09-16T09:36:01.704Z,1017.93
2018-09-16T09:37:10.351Z,1017.86
2018-09-16T09:38:19.000Z,1017.89
2018-09-16T09:39:27.652Z,1017.87
2018-09-16T09:40:36.568Z,1017.83
2018-09-16T09:41:45.464Z,1017.82
2018-09-16T09:42:54.165Z,1017.83
2018-09-16T09:44:02.765Z,1017.81
2018-09-16T09:45:11.403Z,1017.79
2018-09-16T09:46:20.059Z,1017.79
2018-09-16T09:47:28.701Z,1017.78
2018-09-16T09:48:37.353Z,1017.79
2018-09-16T09:49:45.998Z,1017.76
2018-09-16T09:50:54.695Z,1017.77
2018-09-16T09:52:03.302Z,1017.74
2018-09-16T09:53:12.015Z,1017.78
2018-09-16T09:54:20.591Z,1017.71
2018-09-16T09:55:29.240Z,1017.76
2018-09-16T09:56:37.893Z,1017.73
2018-09-16T09:57:46.540Z,1017.72
2018-09-16T09:58:55.307Z,1017.73
2018-09-16T10:00:03.825Z,1017.72
2018-09-16T10:01:12.480Z,1017.71
2018-09-16T10:02:21.380Z,1017.7
2018-09-16T10:03:30.036Z,1017.66
2018-09-16T10:04:38.674Z,1017.76
2018-09-16T10:05:47.326Z,1017.72
2018-09-16T10:06:55.969Z,1017.79
2018-09-16T10:08:04.627Z,1017.74
2018-09-16T10:09:13.270Z,1017.79
2018-09-16T10:10:21.918Z,1017.8
2018-09-16T10:11:30.563Z,1017.75
2018-09-16T10:12:39.219Z,1017.71
2018-09-16T10:13:47.931Z,1017.7
2018-09-16T10:14:56.861Z,1017.72
2018-09-16T10:16:05.772Z,1017.72
2018-09-16T10:17:14.426Z,1017.73
2018-09-16T10:18:23.083Z,1017.72
2018-09-16T10:19:31.728Z,1017.7
2018-09-16T10:20:40.958Z,1017.64
2018-09-16T10:21:49.597Z,1017.68
2018-09-16T10:22:58.253Z,1017.69
2018-09-16T10:24:07.012Z,1017.67
2018-09-16T10:25:15.838Z,1017.68
2018-09-16T10:26:24.475Z,1017.63
2018-09-16T10:27:33.133Z,1017.62
2018-09-16T10:28:42.039Z,1017.58
2018-09-16T10:29:50.689Z,1017.6
2018-09-16T10:30:59.335Z,1017.59
2018-09-16T10:32:07.982Z,1017.55
2018-09-16T10:33:16.634Z,1017.58
2018-09-16T10:34:25.284Z,1017.61
2018-09-16T10:35:33.937Z,1017.53
2018-09-16T10:36:42.573Z,1017.53
2018-09-16T10:37:51.226Z,1017.57
2018-09-16T10:38:59.965Z,1017.54
2018-09-16T10:40:08.924Z,1017.52
2018-09-16T10:41:17.570Z,1017.52
2018-09-16T10:42:26.217Z,1017.52
2018-09-16T10:43:35.126Z,1017.55
2018-09-16T10:44:43.778Z,1017.51
2018-09-16T10:45:52.422Z,1017.48
2018-09-16T10:47:01.073Z,1017.49
2018-09-16T10:48:10.037Z,1017.49
2018-09-16T10:49:18.975Z,1017.47
2018-09-16T10:50:27.620Z,1017.48
2018-09-16T10:51:36.271Z,1017.45
2018-09-16T10:52:44.918Z,1017.51
2018-09-16T10:53:53.566Z,1017.46
2018-09-16T10:55:02.217Z,1017.44
2018-09-16T10:56:11.128Z,1017.45
2018-09-16T10:57:20.040Z,1017.45
2018-09-16T10:58:29.214Z,1017.45
2018-09-16T10:59:37.864Z,1017.46
2018-09-16T11:00:46.515Z,1017.46
2018-09-16T11:01:55.165Z,1017.41
2018-09-16T11:03:04.072Z,1017.44
2018-09-16T11:04:12.724Z,1017.43
2018-09-16T11:05:21.371Z,1017.47
2018-09-16T11:06:30.025Z,1017.49
2018-09-16T11:07:38.672Z,1017.44
2018-09-16T11:08:47.324Z,1017.45
2018-09-16T11:09:55.974Z,1017.39
2018-09-16T11:11:04.624Z,1017.42
2018-09-16T11:12:13.279Z,1017.4
2018-09-16T11:13:21.924Z,1017.38
2018-09-16T11:14:30.574Z,1017.37
2018-09-16T11:15:39.230Z,1017.35
2018-09-16T11:16:47.877Z,1017.39
2018-09-16T11:17:56.521Z,1017.38
2018-09-16T11:19:05.179Z,1017.32
2018-09-16T11:20:13.827Z,1017.31
2018-09-16T11:21:22.481Z,1017.26
2018-09-16T11:22:31.128Z,1017.32
2018-09-16T11:23:39.775Z,1017.32
2018-09-16T11:24:48.423Z,1017.33
2018-09-16T11:25:57.076Z,1017.29
2018-09-16T11:27:05.729Z,1017.22
2018-09-16T11:28:14.372Z,1017.21
2018-09-16T11:29:23.291Z,1017.18
2018-09-16T11:30:31.936Z,1017.22
2018-09-16T11:31:40.592Z,1017.17
2018-09-16T11:32:49.240Z,1017.14
2018-09-16T11:33:57.886Z,1017.15
2018-09-16T11:35:06.529Z,1017.14
2018-09-16T11:36:15.183Z,1017.1
2018-09-16T11:37:24.091Z,1017.09
2018-09-16T11:38:32.739Z,1017.08
2018-09-16T11:39:41.383Z,1017.06
2018-09-16T11:40:50.313Z,1017
2018-09-16T11:41:59.225Z,1016.98
2018-09-16T11:43:07.876Z,1017.03
2018-09-16T11:44:16.519Z,1017.01
2018-09-16T11:45:25.170Z,1016.94
2018-09-16T11:46:34.100Z,1017
2018-09-16T11:47:42.752Z,1016.97
2018-09-16T11:48:51.661Z,1016.94
2018-09-16T11:50:00.302Z,1016.95
2018-09-16T11:51:08.956Z,1016.89
2018-09-16T11:52:17.605Z,1016.94
2018-09-16T11:53:26.262Z,1016.97
2018-09-16T11:54:34.902Z,1016.92
2018-09-16T11:55:43.552Z,1016.91
2018-09-16T11:56:52.194Z,1016.88
2018-09-16T11:58:00.851Z,1016.88
2018-09-16T11:59:09.756Z,1016.92
2018-09-16T12:00:18.411Z,1016.86
2018-09-16T12:01:27.857Z,1016.86
2018-09-16T12:02:36.516Z,1016.86
2018-09-16T12:03:45.427Z,1016.81
2018-09-16T12:04:54.077Z,1016.85
2018-09-16T12:06:02.986Z,1016.83
2018-09-16T12:07:11.632Z,1016.8
2018-09-16T12:08:20.291Z,1016.82
2018-09-16T12:09:28.936Z,1016.82
2018-09-16T12:10:37.590Z,1016.76
2018-09-16T12:11:46.228Z,1016.78
2018-09-16T12:12:54.885Z,1016.76
2018-09-16T12:14:03.533Z,1016.72
2018-09-16T12:15:12.190Z,1016.71
2018-09-16T12:16:20.829Z,1016.66
2018-09-16T12:17:29.493Z,1016.68
2018-09-16T12:18:38.138Z,1016.67
2018-09-16T12:19:47.048Z,1016.71
2018-09-16T12:20:55.689Z,1016.66
2018-09-16T12:22:04.340Z,1016.66
2018-09-16T12:23:13.001Z,1016.66
2018-09-16T12:24:21.910Z,1016.64
2018-09-16T12:25:30.564Z,1016.63
2018-09-16T12:26:39.204Z,1016.59
2018-09-16T12:27:47.859Z,1016.61
2018-09-16T12:28:56.502Z,1016.54
2018-09-16T12:30:05.159Z,1016.49
2018-09-16T12:31:13.798Z,1016.51
2018-09-16T12:32:22.717Z,1016.45
2018-09-16T12:33:31.363Z,1016.41
2018-09-16T12:34:40.286Z,1016.41
2018-09-16T12:35:48.933Z,1016.42
2018-09-16T12:36:57.577Z,1016.36
2018-09-16T12:38:06.234Z,1016.38
2018-09-16T12:39:14.882Z,1016.39
2018-09-16T12:40:23.529Z,1016.38
2018-09-16T12:41:32.182Z,1016.36
2018-09-16T12:42:40.830Z,1016.35
2018-09-16T12:43:49.475Z,1016.35
2018-09-16T12:44:58.128Z,1016.36
2018-09-16T12:46:07.042Z,1016.37
2018-09-16T12:47:15.691Z,1016.37
2018-09-16T12:48:24.334Z,1016.36
2018-09-16T12:49:32.992Z,1016.34
2018-09-16T12:50:41.899Z,1016.28
2018-09-16T12:51:50.548Z,1016.28
2018-09-16T12:52:59.191Z,1016.27
2018-09-16T12:54:07.847Z,1016.29
2018-09-16T12:55:17.039Z,1016.26
2018-09-16T12:56:25.694Z,1016.26
2018-09-16T12:57:34.865Z,1016.23
2018-09-16T12:58:43.514Z,1016.23
2018-09-16T12:59:52.161Z,1016.22
2018-09-16T13:01:00.814Z,1016.18
2018-09-16T13:02:09.466Z,1016.19
2018-09-16T13:03:18.109Z,1016.19
2018-09-16T13:04:26.797Z,1016.22
2018-09-16T13:05:35.409Z,1016.2
2018-09-16T13:06:44.596Z,1016.19
2018-09-16T13:07:53.242Z,1016.17
2018-09-16T13:09:01.893Z,1016.16
2018-09-16T13:10:10.541Z,1016.17
2018-09-16T13:11:19.191Z,1016.12
2018-09-16T13:12:27.839Z,1016.17
2018-09-16T13:13:36.787Z,1016.2
2018-09-16T13:14:45.408Z,1016.12
2018-09-16T13:15:54.062Z,1016.12
2018-09-16T13:17:02.708Z,1016.1
2018-09-16T13:18:11.358Z,1016.17
2018-09-16T13:19:20.004Z,1016.11
2018-09-16T13:20:28.654Z,1016.09
2018-09-16T13:21:37.308Z,1016.04
2018-09-16T13:22:45.958Z,1016.06
2018-09-16T13:23:54.609Z,1016.05
2018-09-16T13:25:03.255Z,1016.05
2018-09-16T13:26:12.687Z,1016.01
2018-09-16T13:27:21.333Z,1016.04
2018-09-16T13:28:29.982Z,1016.03
2018-09-16T13:29:38.935Z,1016.03
2018-09-16T13:30:47.590Z,1016.02
2018-09-16T13:31:56.238Z,1016.02
2018-09-16T13:33:04.900Z,1016.02
2018-09-16T13:34:14.139Z,1016.02
2018-09-16T13:35:22.799Z,1016.01
2018-09-16T13:36:31.447Z,1015.99
2018-09-16T13:37:40.361Z,1016
2018-09-16T13:38:49.319Z,1015.99
2018-09-16T13:39:57.974Z,1015.95
2018-09-16T13:41:06.887Z,1015.99
2018-09-16T13:42:15.537Z,1015.93
2018-09-16T13:43:24.183Z,1015.93
2018-09-16T13:44:32.841Z,1015.89
2018-09-16T13:45:42.075Z,1015.89
2018-09-16T13:46:50.960Z,1015.86
2018-09-16T13:47:59.605Z,1015.91
2018-09-16T13:49:08.261Z,1015.87
2018-09-16T13:50:16.910Z,1015.9
2018-09-16T13:51:25.572Z,1015.89
2018-09-16T13:52:34.480Z,1015.94
2018-09-16T13:53:43.171Z,1015.91
2018-09-16T13:54:52.044Z,1015.9